Terminal Aerodrome Forecast
Issued by NWS Wilmington, OH

Current Version | Previous Version | Text Only | Print | Product List | Glossary Off
Versions: 1 2 3 4 5 6 7 8 9 10 11 12 13 14 15 16

000
FTUS41 KILN 271300 AAA
TAFDAY
TAF AMD
KDAY 271351Z 2714/2812 33014KT P6SM BKN015
     FM271700 32014G22KT P6SM SCT015
     FM271900 32014G22KT P6SM BKN045
     FM280100 32009KT P6SM FEW040
     FM281100 36009KT P6SM SCT035=

USA.gov is the U.S. government's official web portal to all federal, state and local government web resources and services.